sensor_id;sensor_type;location;lat;lon;timestamp;P1;durP1;ratioP1;P2;durP2;ratioP2
53871;SDS011;39787;53.174;5.798;2022-08-19T00:00:13;10.98;;;7.45;;
53871;SDS011;39787;53.174;5.798;2022-08-19T00:01:14;11.10;;;7.10;;
53871;SDS011;39787;53.174;5.798;2022-08-19T00:02:15;13.13;;;7.03;;
53871;SDS011;39787;53.174;5.798;2022-08-19T00:03:15;10.77;;;7.63;;
53871;SDS011;39787;53.174;5.798;2022-08-19T00:04:16;8.93;;;6.63;;
53871;SDS011;39787;53.174;5.798;2022-08-19T00:05:18;15.13;;;7.82;;
53871;SDS011;39787;53.174;5.798;2022-08-19T00:06:20;8.98;;;7.10;;
53871;SDS011;39787;53.174;5.798;2022-08-19T00:07:20;13.93;;;7.47;;
53871;SDS011;39787;53.174;5.798;2022-08-19T00:08:21;9.85;;;7.30;;
53871;SDS011;39787;53.174;5.798;2022-08-19T00:09:22;10.83;;;7.10;;
53871;SDS011;39787;53.174;5.798;2022-08-19T00:10:24;13.98;;;7.03;;
53871;SDS011;39787;53.174;5.798;2022-08-19T00:11:24;9.03;;;7.30;;
53871;SDS011;39787;53.174;5.798;2022-08-19T00:12:25;11.80;;;7.07;;
53871;SDS011;39787;53.174;5.798;2022-08-19T00:13:25;10.05;;;6.88;;
53871;SDS011;39787;53.174;5.798;2022-08-19T00:14:26;9.70;;;7.23;;
53871;SDS011;39787;53.174;5.798;2022-08-19T00:15:27;17.20;;;7.07;;
53871;SDS011;39787;53.174;5.798;2022-08-19T00:16:27;8.73;;;6.40;;
53871;SDS011;39787;53.174;5.798;2022-08-19T00:17:28;10.00;;;7.73;;
53871;SDS011;39787;53.174;5.798;2022-08-19T00:18:28;10.47;;;7.67;;
53871;SDS011;39787;53.174;5.798;2022-08-19T00:19:29;14.83;;;7.70;;
53871;SDS011;39787;53.174;5.798;2022-08-19T00:20:30;12.77;;;7.43;;
53871;SDS011;39787;53.174;5.798;2022-08-19T00:21:31;9.87;;;7.33;;
53871;SDS011;39787;53.174;5.798;2022-08-19T00:22:31;9.23;;;7.77;;
53871;SDS011;39787;53.174;5.798;2022-08-19T00:23:32;11.80;;;7.53;;
53871;SDS011;39787;53.174;5.798;2022-08-19T00:24:32;11.93;;;7.90;;
53871;SDS011;39787;53.174;5.798;2022-08-19T00:25:32;11.63;;;7.57;;
53871;SDS011;39787;53.174;5.798;2022-08-19T00:26:33;14.83;;;8.07;;
53871;SDS011;39787;53.174;5.798;2022-08-19T00:27:34;9.10;;;7.25;;
53871;SDS011;39787;53.174;5.798;2022-08-19T00:28:35;12.67;;;7.03;;
53871;SDS011;39787;53.174;5.798;2022-08-19T00:29:36;10.98;;;7.63;;
53871;SDS011;39787;53.174;5.798;2022-08-19T00:30:36;10.47;;;8.47;;
53871;SDS011;39787;53.174;5.798;2022-08-19T00:31:37;13.07;;;7.53;;
53871;SDS011;39787;53.174;5.798;2022-08-19T00:32:39;10.23;;;7.30;;
53871;SDS011;39787;53.174;5.798;2022-08-19T00:33:39;12.23;;;7.05;;
53871;SDS011;39787;53.174;5.798;2022-08-19T00:34:40;7.27;;;6.57;;
53871;SDS011;39787;53.174;5.798;2022-08-19T00:35:40;15.67;;;7.70;;
53871;SDS011;39787;53.174;5.798;2022-08-19T00:36:41;13.57;;;7.37;;
53871;SDS011;39787;53.174;5.798;2022-08-19T00:37:42;8.73;;;6.80;;
53871;SDS011;39787;53.174;5.798;2022-08-19T00:38:42;9.27;;;6.80;;
53871;SDS011;39787;53.174;5.798;2022-08-19T00:39:43;9.17;;;6.97;;
53871;SDS011;39787;53.174;5.798;2022-08-19T00:40:43;10.77;;;6.73;;
53871;SDS011;39787;53.174;5.798;2022-08-19T00:41:44;9.73;;;7.03;;
53871;SDS011;39787;53.174;5.798;2022-08-19T00:42:46;13.82;;;7.47;;
53871;SDS011;39787;53.174;5.798;2022-08-19T00:43:56;9.48;;;7.72;;
53871;SDS011;39787;53.174;5.798;2022-08-19T00:45:02;9.02;;;7.25;;
53871;SDS011;39787;53.174;5.798;2022-08-19T00:46:10;9.73;;;7.70;;
53871;SDS011;39787;53.174;5.798;2022-08-19T00:47:11;15.07;;;8.07;;
53871;SDS011;39787;53.174;5.798;2022-08-19T00:48:12;8.18;;;7.20;;
53871;SDS011;39787;53.174;5.798;2022-08-19T00:50:54;9.43;;;7.07;;
53871;SDS011;39787;53.174;5.798;2022-08-19T00:51:55;13.30;;;7.60;;
53871;SDS011;39787;53.174;5.798;2022-08-19T00:53:26;12.20;;;7.60;;
53871;SDS011;39787;53.174;5.798;2022-08-19T00:54:31;11.65;;;7.30;;
53871;SDS011;39787;53.174;5.798;2022-08-19T00:55:32;11.40;;;7.88;;
53871;SDS011;39787;53.174;5.798;2022-08-19T00:56:32;9.82;;;7.75;;
53871;SDS011;39787;53.174;5.798;2022-08-19T00:57:35;7.60;;;6.78;;
53871;SDS011;39787;53.174;5.798;2022-08-19T00:58:39;12.40;;;8.15;;
53871;SDS011;39787;53.174;5.798;2022-08-19T00:59:40;14.77;;;7.77;;
53871;SDS011;39787;53.174;5.798;2022-08-19T01:00:43;11.82;;;7.78;;
53871;SDS011;39787;53.174;5.798;2022-08-19T01:01:44;12.15;;;8.07;;
53871;SDS011;39787;53.174;5.798;2022-08-19T01:02:46;10.20;;;8.13;;
53871;SDS011;39787;53.174;5.798;2022-08-19T01:03:47;10.02;;;7.07;;
53871;SDS011;39787;53.174;5.798;2022-08-19T01:04:47;12.10;;;8.40;;
53871;SDS011;39787;53.174;5.798;2022-08-19T01:05:49;9.07;;;7.67;;
53871;SDS011;39787;53.174;5.798;2022-08-19T01:06:51;12.48;;;7.95;;
53871;SDS011;39787;53.174;5.798;2022-08-19T01:07:52;14.00;;;7.63;;
53871;SDS011;39787;53.174;5.798;2022-08-19T01:08:54;15.07;;;8.00;;
53871;SDS011;39787;53.174;5.798;2022-08-19T01:09:54;14.30;;;7.40;;
53871;SDS011;39787;53.174;5.798;2022-08-19T01:10:56;9.87;;;8.00;;
53871;SDS011;39787;53.174;5.798;2022-08-19T01:11:59;13.10;;;8.32;;
53871;SDS011;39787;53.174;5.798;2022-08-19T01:13:00;8.50;;;7.63;;
53871;SDS011;39787;53.174;5.798;2022-08-19T01:14:02;13.68;;;8.30;;
53871;SDS011;39787;53.174;5.798;2022-08-19T01:15:04;9.20;;;7.35;;
53871;SDS011;39787;53.174;5.798;2022-08-19T01:16:08;9.57;;;7.55;;
53871;SDS011;39787;53.174;5.798;2022-08-19T01:17:10;9.38;;;7.15;;
53871;SDS011;39787;53.174;5.798;2022-08-19T01:18:12;9.57;;;7.45;;
53871;SDS011;39787;53.174;5.798;2022-08-19T01:19:37;12.43;;;7.53;;
53871;SDS011;39787;53.174;5.798;2022-08-19T01:20:37;8.65;;;7.20;;
53871;SDS011;39787;53.174;5.798;2022-08-19T01:21:44;11.98;;;7.47;;
53871;SDS011;39787;53.174;5.798;2022-08-19T01:22:56;9.20;;;7.07;;
53871;SDS011;39787;53.174;5.798;2022-08-19T01:23:58;11.52;;;7.40;;
53871;SDS011;39787;53.174;5.798;2022-08-19T01:24:58;9.73;;;7.65;;
53871;SDS011;39787;53.174;5.798;2022-08-19T01:25:59;10.52;;;7.63;;
53871;SDS011;39787;53.174;5.798;2022-08-19T01:27:02;7.37;;;6.63;;
53871;SDS011;39787;53.174;5.798;2022-08-19T01:28:04;8.90;;;7.32;;
53871;SDS011;39787;53.174;5.798;2022-08-19T01:29:05;13.07;;;7.43;;
53871;SDS011;39787;53.174;5.798;2022-08-19T01:30:07;11.23;;;7.03;;
53871;SDS011;39787;53.174;5.798;2022-08-19T01:31:11;8.77;;;7.93;;
53871;SDS011;39787;53.174;5.798;2022-08-19T01:32:15;9.05;;;7.13;;
53871;SDS011;39787;53.174;5.798;2022-08-19T01:33:16;9.57;;;7.03;;
53871;SDS011;39787;53.174;5.798;2022-08-19T01:34:18;8.85;;;7.18;;
53871;SDS011;39787;53.174;5.798;2022-08-19T01:36:34;9.80;;;7.85;;
53871;SDS011;39787;53.174;5.798;2022-08-19T01:37:48;9.02;;;7.68;;
53871;SDS011;39787;53.174;5.798;2022-08-19T01:38:58;11.05;;;6.72;;
53871;SDS011;39787;53.174;5.798;2022-08-19T01:40:00;8.70;;;7.90;;
53871;SDS011;39787;53.174;5.798;2022-08-19T01:41:01;15.77;;;7.90;;
53871;SDS011;39787;53.174;5.798;2022-08-19T01:42:02;10.90;;;8.63;;
53871;SDS011;39787;53.174;5.798;2022-08-19T01:43:02;10.87;;;8.47;;
53871;SDS011;39787;53.174;5.798;2022-08-19T01:44:04;13.00;;;9.38;;
53871;SDS011;39787;53.174;5.798;2022-08-19T01:45:06;10.93;;;8.27;;
53871;SDS011;39787;53.174;5.798;2022-08-19T01:46:07;9.85;;;8.77;;
53871;SDS011;39787;53.174;5.798;2022-08-19T01:47:08;9.30;;;7.80;;
53871;SDS011;39787;53.174;5.798;2022-08-19T01:48:08;12.93;;;8.80;;
53871;SDS011;39787;53.174;5.798;2022-08-19T01:49:09;12.97;;;9.07;;
53871;SDS011;39787;53.174;5.798;2022-08-19T01:50:10;14.00;;;8.80;;
53871;SDS011;39787;53.174;5.798;2022-08-19T01:51:12;14.70;;;9.35;;
53871;SDS011;39787;53.174;5.798;2022-08-19T01:52:13;15.70;;;9.55;;
53871;SDS011;39787;53.174;5.798;2022-08-19T01:53:13;12.03;;;8.53;;
53871;SDS011;39787;53.174;5.798;2022-08-19T01:54:15;11.27;;;8.80;;
53871;SDS011;39787;53.174;5.798;2022-08-19T01:55:19;9.90;;;8.48;;
53871;SDS011;39787;53.174;5.798;2022-08-19T01:56:21;10.52;;;8.80;;
53871;SDS011;39787;53.174;5.798;2022-08-19T01:58:24;12.55;;;8.93;;
53871;SDS011;39787;53.174;5.798;2022-08-19T01:59:31;9.85;;;8.68;;
53871;SDS011;39787;53.174;5.798;2022-08-19T02:00:33;10.55;;;8.65;;
53871;SDS011;39787;53.174;5.798;2022-08-19T02:01:34;9.52;;;8.45;;
53871;SDS011;39787;53.174;5.798;2022-08-19T02:02:35;13.38;;;8.45;;
53871;SDS011;39787;53.174;5.798;2022-08-19T02:03:35;11.30;;;8.63;;
53871;SDS011;39787;53.174;5.798;2022-08-19T02:04:36;14.83;;;8.50;;
53871;SDS011;39787;53.174;5.798;2022-08-19T02:05:38;9.57;;;8.45;;
53871;SDS011;39787;53.174;5.798;2022-08-19T02:06:39;10.32;;;8.65;;
53871;SDS011;39787;53.174;5.798;2022-08-19T02:07:40;13.43;;;8.63;;
53871;SDS011;39787;53.174;5.798;2022-08-19T02:08:41;10.10;;;8.30;;
53871;SDS011;39787;53.174;5.798;2022-08-19T02:09:41;10.80;;;8.00;;
53871;SDS011;39787;53.174;5.798;2022-08-19T02:10:43;10.57;;;8.33;;
53871;SDS011;39787;53.174;5.798;2022-08-19T02:11:44;10.77;;;9.18;;
53871;SDS011;39787;53.174;5.798;2022-08-19T02:12:45;12.17;;;8.53;;
53871;SDS011;39787;53.174;5.798;2022-08-19T02:13:45;10.35;;;8.90;;
53871;SDS011;39787;53.174;5.798;2022-08-19T02:14:46;9.77;;;8.27;;
53871;SDS011;39787;53.174;5.798;2022-08-19T02:15:46;12.23;;;8.90;;
53871;SDS011;39787;53.174;5.798;2022-08-19T02:16:47;10.57;;;8.87;;
53871;SDS011;39787;53.174;5.798;2022-08-19T02:17:47;11.77;;;10.17;;
53871;SDS011;39787;53.174;5.798;2022-08-19T02:18:48;18.20;;;9.87;;
53871;SDS011;39787;53.174;5.798;2022-08-19T02:19:49;15.07;;;9.70;;
53871;SDS011;39787;53.174;5.798;2022-08-19T02:20:50;14.17;;;9.47;;
53871;SDS011;39787;53.174;5.798;2022-08-19T02:21:50;9.60;;;8.63;;
53871;SDS011;39787;53.174;5.798;2022-08-19T02:22:50;13.67;;;8.13;;
53871;SDS011;39787;53.174;5.798;2022-08-19T02:23:51;11.17;;;8.93;;
53871;SDS011;39787;53.174;5.798;2022-08-19T02:24:52;22.47;;;9.33;;
53871;SDS011;39787;53.174;5.798;2022-08-19T02:25:53;11.68;;;7.97;;
53871;SDS011;39787;53.174;5.798;2022-08-19T02:26:53;7.93;;;7.23;;
53871;SDS011;39787;53.174;5.798;2022-08-19T02:27:54;8.53;;;6.87;;
53871;SDS011;39787;53.174;5.798;2022-08-19T02:28:54;7.97;;;7.00;;
53871;SDS011;39787;53.174;5.798;2022-08-19T02:29:55;7.68;;;6.43;;
53871;SDS011;39787;53.174;5.798;2022-08-19T02:30:56;8.43;;;7.17;;
53871;SDS011;39787;53.174;5.798;2022-08-19T02:31:56;9.10;;;7.50;;
53871;SDS011;39787;53.174;5.798;2022-08-19T02:32:57;9.77;;;6.40;;
53871;SDS011;39787;53.174;5.798;2022-08-19T02:33:57;8.57;;;6.57;;
53871;SDS011;39787;53.174;5.798;2022-08-19T02:34:58;10.87;;;6.80;;
53871;SDS011;39787;53.174;5.798;2022-08-19T02:35:58;7.43;;;6.70;;
53871;SDS011;39787;53.174;5.798;2022-08-19T02:36:59;10.77;;;8.50;;
53871;SDS011;39787;53.174;5.798;2022-08-19T02:38:00;8.90;;;7.63;;
53871;SDS011;39787;53.174;5.798;2022-08-19T02:39:00;9.57;;;8.00;;
53871;SDS011;39787;53.174;5.798;2022-08-19T02:40:01;14.50;;;8.90;;
53871;SDS011;39787;53.174;5.798;2022-08-19T02:41:04;13.03;;;9.27;;
53871;SDS011;39787;53.174;5.798;2022-08-19T02:42:11;14.10;;;9.45;;
53871;SDS011;39787;53.174;5.798;2022-08-19T02:43:11;13.43;;;10.30;;
53871;SDS011;39787;53.174;5.798;2022-08-19T02:44:12;16.03;;;11.27;;
53871;SDS011;39787;53.174;5.798;2022-08-19T02:45:13;12.30;;;9.37;;
53871;SDS011;39787;53.174;5.798;2022-08-19T02:46:21;15.25;;;9.88;;
53871;SDS011;39787;53.174;5.798;2022-08-19T02:47:23;16.10;;;10.90;;
53871;SDS011;39787;53.174;5.798;2022-08-19T02:48:24;14.40;;;10.30;;
53871;SDS011;39787;53.174;5.798;2022-08-19T02:49:25;17.88;;;10.65;;
53871;SDS011;39787;53.174;5.798;2022-08-19T02:50:26;14.80;;;10.77;;
53871;SDS011;39787;53.174;5.798;2022-08-19T02:51:27;14.47;;;10.67;;
53871;SDS011;39787;53.174;5.798;2022-08-19T02:52:31;16.55;;;11.38;;
53871;SDS011;39787;53.174;5.798;2022-08-19T02:53:33;19.73;;;11.40;;
53871;SDS011;39787;53.174;5.798;2022-08-19T02:54:33;16.00;;;10.73;;
53871;SDS011;39787;53.174;5.798;2022-08-19T02:55:34;13.60;;;11.47;;
53871;SDS011;39787;53.174;5.798;2022-08-19T02:56:35;17.15;;;11.88;;
53871;SDS011;39787;53.174;5.798;2022-08-19T02:57:36;18.13;;;11.52;;
53871;SDS011;39787;53.174;5.798;2022-08-19T02:58:37;15.13;;;11.20;;
53871;SDS011;39787;53.174;5.798;2022-08-19T02:59:38;15.57;;;10.80;;
53871;SDS011;39787;53.174;5.798;2022-08-19T03:00:42;16.80;;;11.23;;
53871;SDS011;39787;53.174;5.798;2022-08-19T03:01:48;14.98;;;10.05;;
53871;SDS011;39787;53.174;5.798;2022-08-19T03:02:49;18.03;;;11.67;;
53871;SDS011;39787;53.174;5.798;2022-08-19T03:03:50;16.80;;;11.35;;
53871;SDS011;39787;53.174;5.798;2022-08-19T03:04:50;16.17;;;12.05;;
53871;SDS011;39787;53.174;5.798;2022-08-19T03:05:51;19.10;;;11.47;;
53871;SDS011;39787;53.174;5.798;2022-08-19T03:07:02;13.20;;;10.38;;
53871;SDS011;39787;53.174;5.798;2022-08-19T03:08:02;13.15;;;11.73;;
53871;SDS011;39787;53.174;5.798;2022-08-19T03:09:03;12.70;;;10.70;;
53871;SDS011;39787;53.174;5.798;2022-08-19T03:10:04;14.27;;;10.60;;
53871;SDS011;39787;53.174;5.798;2022-08-19T03:11:05;13.73;;;10.93;;
53871;SDS011;39787;53.174;5.798;2022-08-19T03:12:05;12.50;;;10.45;;
53871;SDS011;39787;53.174;5.798;2022-08-19T03:13:06;12.07;;;10.13;;
53871;SDS011;39787;53.174;5.798;2022-08-19T03:14:07;19.87;;;11.77;;
53871;SDS011;39787;53.174;5.798;2022-08-19T03:15:08;13.02;;;11.27;;
53871;SDS011;39787;53.174;5.798;2022-08-19T03:16:10;20.77;;;11.27;;
53871;SDS011;39787;53.174;5.798;2022-08-19T03:18:12;17.63;;;11.85;;
53871;SDS011;39787;53.174;5.798;2022-08-19T03:19:13;14.20;;;10.88;;
53871;SDS011;39787;53.174;5.798;2022-08-19T03:20:16;15.23;;;11.05;;
53871;SDS011;39787;53.174;5.798;2022-08-19T03:21:18;15.07;;;10.80;;
53871;SDS011;39787;53.174;5.798;2022-08-19T03:22:20;13.18;;;10.02;;
53871;SDS011;39787;53.174;5.798;2022-08-19T03:23:21;13.90;;;10.40;;
53871;SDS011;39787;53.174;5.798;2022-08-19T03:24:22;14.25;;;10.70;;
53871;SDS011;39787;53.174;5.798;2022-08-19T03:25:22;13.37;;;9.93;;
53871;SDS011;39787;53.174;5.798;2022-08-19T03:26:23;13.50;;;9.60;;
53871;SDS011;39787;53.174;5.798;2022-08-19T03:27:23;12.25;;;9.90;;
53871;SDS011;39787;53.174;5.798;2022-08-19T03:28:24;14.77;;;9.47;;
53871;SDS011;39787;53.174;5.798;2022-08-19T03:29:28;10.07;;;9.07;;
53871;SDS011;39787;53.174;5.798;2022-08-19T03:30:29;13.48;;;8.50;;
53871;SDS011;39787;53.174;5.798;2022-08-19T03:31:29;10.67;;;8.77;;
53871;SDS011;39787;53.174;5.798;2022-08-19T03:32:30;12.43;;;8.50;;
53871;SDS011;39787;53.174;5.798;2022-08-19T03:33:31;11.97;;;9.43;;
53871;SDS011;39787;53.174;5.798;2022-08-19T03:35:34;11.60;;;8.45;;
53871;SDS011;39787;53.174;5.798;2022-08-19T03:36:34;11.53;;;8.80;;
53871;SDS011;39787;53.174;5.798;2022-08-19T03:37:35;9.52;;;8.55;;
53871;SDS011;39787;53.174;5.798;2022-08-19T03:38:36;12.17;;;9.37;;
53871;SDS011;39787;53.174;5.798;2022-08-19T03:39:39;12.07;;;9.57;;
53871;SDS011;39787;53.174;5.798;2022-08-19T03:40:41;11.50;;;9.57;;
53871;SDS011;39787;53.174;5.798;2022-08-19T03:41:42;13.20;;;9.07;;
53871;SDS011;39787;53.174;5.798;2022-08-19T03:42:44;14.07;;;9.32;;
53871;SDS011;39787;53.174;5.798;2022-08-19T03:43:45;14.27;;;9.13;;
53871;SDS011;39787;53.174;5.798;2022-08-19T03:44:45;12.10;;;9.80;;
53871;SDS011;39787;53.174;5.798;2022-08-19T03:45:46;14.37;;;10.30;;
53871;SDS011;39787;53.174;5.798;2022-08-19T03:46:47;16.03;;;10.23;;
53871;SDS011;39787;53.174;5.798;2022-08-19T03:47:49;14.40;;;10.82;;
53871;SDS011;39787;53.174;5.798;2022-08-19T03:48:50;14.60;;;11.20;;
53871;SDS011;39787;53.174;5.798;2022-08-19T03:49:52;13.43;;;10.70;;
53871;SDS011;39787;53.174;5.798;2022-08-19T03:50:53;11.93;;;10.23;;
53871;SDS011;39787;53.174;5.798;2022-08-19T03:51:54;16.10;;;11.20;;
53871;SDS011;39787;53.174;5.798;2022-08-19T03:52:55;14.02;;;10.30;;
53871;SDS011;39787;53.174;5.798;2022-08-19T03:53:56;25.70;;;10.73;;
53871;SDS011;39787;53.174;5.798;2022-08-19T03:54:57;13.43;;;10.18;;
53871;SDS011;39787;53.174;5.798;2022-08-19T03:55:58;15.90;;;10.93;;
53871;SDS011;39787;53.174;5.798;2022-08-19T03:56:59;17.02;;;11.05;;
53871;SDS011;39787;53.174;5.798;2022-08-19T03:58:00;14.83;;;11.13;;
53871;SDS011;39787;53.174;5.798;2022-08-19T03:59:00;12.73;;;10.43;;
53871;SDS011;39787;53.174;5.798;2022-08-19T04:00:03;15.43;;;10.07;;
53871;SDS011;39787;53.174;5.798;2022-08-19T04:01:07;13.50;;;9.80;;
53871;SDS011;39787;53.174;5.798;2022-08-19T04:02:10;13.75;;;10.43;;
53871;SDS011;39787;53.174;5.798;2022-08-19T04:03:12;16.33;;;11.52;;
53871;SDS011;39787;53.174;5.798;2022-08-19T04:04:12;18.30;;;11.47;;
53871;SDS011;39787;53.174;5.798;2022-08-19T04:05:13;15.57;;;10.57;;
53871;SDS011;39787;53.174;5.798;2022-08-19T04:06:14;19.07;;;11.07;;
53871;SDS011;39787;53.174;5.798;2022-08-19T04:07:15;12.05;;;10.50;;
53871;SDS011;39787;53.174;5.798;2022-08-19T04:08:15;15.97;;;10.90;;
53871;SDS011;39787;53.174;5.798;2022-08-19T04:09:16;17.02;;;12.13;;
53871;SDS011;39787;53.174;5.798;2022-08-19T04:10:17;15.23;;;11.05;;
53871;SDS011;39787;53.174;5.798;2022-08-19T04:11:19;15.13;;;11.10;;
53871;SDS011;39787;53.174;5.798;2022-08-19T04:12:21;15.57;;;10.63;;
53871;SDS011;39787;53.174;5.798;2022-08-19T04:13:21;13.77;;;11.07;;
53871;SDS011;39787;53.174;5.798;2022-08-19T04:14:23;16.87;;;11.27;;
53871;SDS011;39787;53.174;5.798;2022-08-19T04:15:26;15.35;;;10.90;;
53871;SDS011;39787;53.174;5.798;2022-08-19T04:16:27;14.75;;;11.23;;
53871;SDS011;39787;53.174;5.798;2022-08-19T04:17:28;14.98;;;11.05;;
53871;SDS011;39787;53.174;5.798;2022-08-19T04:18:28;11.17;;;10.00;;
53871;SDS011;39787;53.174;5.798;2022-08-19T04:19:29;14.83;;;10.40;;
53871;SDS011;39787;53.174;5.798;2022-08-19T04:20:30;11.05;;;9.60;;
53871;SDS011;39787;53.174;5.798;2022-08-19T04:21:30;11.47;;;9.47;;
53871;SDS011;39787;53.174;5.798;2022-08-19T04:22:31;11.98;;;9.48;;
53871;SDS011;39787;53.174;5.798;2022-08-19T04:23:32;16.33;;;10.47;;
53871;SDS011;39787;53.174;5.798;2022-08-19T04:24:34;11.45;;;8.90;;
53871;SDS011;39787;53.174;5.798;2022-08-19T04:25:42;16.70;;;10.23;;
53871;SDS011;39787;53.174;5.798;2022-08-19T04:26:43;14.10;;;9.85;;
53871;SDS011;39787;53.174;5.798;2022-08-19T04:28:45;10.93;;;9.82;;
53871;SDS011;39787;53.174;5.798;2022-08-19T04:29:46;11.70;;;9.30;;
53871;SDS011;39787;53.174;5.798;2022-08-19T04:30:48;9.43;;;8.47;;
53871;SDS011;39787;53.174;5.798;2022-08-19T04:31:51;10.48;;;9.27;;
53871;SDS011;39787;53.174;5.798;2022-08-19T04:32:52;12.18;;;10.10;;
53871;SDS011;39787;53.174;5.798;2022-08-19T04:33:57;11.27;;;9.80;;
53871;SDS011;39787;53.174;5.798;2022-08-19T04:34:58;10.85;;;9.07;;
53871;SDS011;39787;53.174;5.798;2022-08-19T04:35:59;12.93;;;9.67;;
53871;SDS011;39787;53.174;5.798;2022-08-19T04:36:59;12.10;;;8.70;;
53871;SDS011;39787;53.174;5.798;2022-08-19T04:38:00;10.87;;;9.77;;
53871;SDS011;39787;53.174;5.798;2022-08-19T04:39:05;14.77;;;10.23;;
53871;SDS011;39787;53.174;5.798;2022-08-19T04:40:09;14.27;;;11.35;;
53871;SDS011;39787;53.174;5.798;2022-08-19T04:41:10;14.60;;;11.25;;
53871;SDS011;39787;53.174;5.798;2022-08-19T04:42:10;18.80;;;12.23;;
53871;SDS011;39787;53.174;5.798;2022-08-19T04:43:11;13.68;;;11.45;;
53871;SDS011;39787;53.174;5.798;2022-08-19T04:44:12;20.77;;;12.80;;
53871;SDS011;39787;53.174;5.798;2022-08-19T04:45:13;16.75;;;12.50;;
53871;SDS011;39787;53.174;5.798;2022-08-19T04:46:14;20.92;;;13.93;;
53871;SDS011;39787;53.174;5.798;2022-08-19T04:47:15;18.95;;;12.80;;
53871;SDS011;39787;53.174;5.798;2022-08-19T04:48:15;19.33;;;14.10;;
53871;SDS011;39787;53.174;5.798;2022-08-19T04:49:16;16.80;;;12.47;;
53871;SDS011;39787;53.174;5.798;2022-08-19T04:50:18;20.15;;;13.57;;
53871;SDS011;39787;53.174;5.798;2022-08-19T04:51:19;21.90;;;13.40;;
53871;SDS011;39787;53.174;5.798;2022-08-19T04:52:19;15.90;;;13.00;;
53871;SDS011;39787;53.174;5.798;2022-08-19T04:53:20;19.27;;;12.33;;
53871;SDS011;39787;53.174;5.798;2022-08-19T04:54:22;19.07;;;13.10;;
53871;SDS011;39787;53.174;5.798;2022-08-19T04:55:24;16.10;;;12.40;;
53871;SDS011;39787;53.174;5.798;2022-08-19T04:56:24;18.07;;;13.10;;
53871;SDS011;39787;53.174;5.798;2022-08-19T04:57:25;17.90;;;13.27;;
53871;SDS011;39787;53.174;5.798;2022-08-19T04:58:26;18.33;;;13.60;;
53871;SDS011;39787;53.174;5.798;2022-08-19T04:59:27;24.05;;;14.25;;
53871;SDS011;39787;53.174;5.798;2022-08-19T05:00:28;19.23;;;13.97;;
53871;SDS011;39787;53.174;5.798;2022-08-19T05:01:29;16.93;;;13.00;;
53871;SDS011;39787;53.174;5.798;2022-08-19T05:02:31;18.08;;;14.30;;
53871;SDS011;39787;53.174;5.798;2022-08-19T05:03:32;19.27;;;14.17;;
53871;SDS011;39787;53.174;5.798;2022-08-19T05:04:33;15.90;;;12.55;;
53871;SDS011;39787;53.174;5.798;2022-08-19T05:05:33;20.37;;;14.20;;
53871;SDS011;39787;53.174;5.798;2022-08-19T05:06:38;20.90;;;15.38;;
53871;SDS011;39787;53.174;5.798;2022-08-19T05:07:39;15.20;;;13.30;;
53871;SDS011;39787;53.174;5.798;2022-08-19T05:08:40;18.37;;;14.40;;
53871;SDS011;39787;53.174;5.798;2022-08-19T05:09:42;15.27;;;13.68;;
53871;SDS011;39787;53.174;5.798;2022-08-19T05:10:42;20.90;;;16.20;;
53871;SDS011;39787;53.174;5.798;2022-08-19T05:11:43;24.03;;;17.10;;
53871;SDS011;39787;53.174;5.798;2022-08-19T05:12:44;24.13;;;16.70;;
53871;SDS011;39787;53.174;5.798;2022-08-19T05:13:44;18.03;;;15.40;;
53871;SDS011;39787;53.174;5.798;2022-08-19T05:14:45;20.95;;;16.13;;
53871;SDS011;39787;53.174;5.798;2022-08-19T05:15:53;18.33;;;15.73;;
53871;SDS011;39787;53.174;5.798;2022-08-19T05:16:57;22.93;;;15.77;;
53871;SDS011;39787;53.174;5.798;2022-08-19T05:17:57;19.27;;;15.87;;
53871;SDS011;39787;53.174;5.798;2022-08-19T05:18:58;22.60;;;16.17;;
53871;SDS011;39787;53.174;5.798;2022-08-19T05:19:58;18.70;;;14.83;;
53871;SDS011;39787;53.174;5.798;2022-08-19T05:21:01;24.03;;;17.57;;
53871;SDS011;39787;53.174;5.798;2022-08-19T05:22:09;21.08;;;15.48;;
53871;SDS011;39787;53.174;5.798;2022-08-19T05:23:10;22.47;;;16.47;;
53871;SDS011;39787;53.174;5.798;2022-08-19T05:24:11;19.88;;;15.48;;
53871;SDS011;39787;53.174;5.798;2022-08-19T05:25:14;20.63;;;15.27;;
53871;SDS011;39787;53.174;5.798;2022-08-19T05:26:17;21.20;;;15.93;;
53871;SDS011;39787;53.174;5.798;2022-08-19T05:27:17;22.43;;;15.53;;
53871;SDS011;39787;53.174;5.798;2022-08-19T05:28:19;20.90;;;16.43;;
53871;SDS011;39787;53.174;5.798;2022-08-19T05:29:20;22.23;;;15.32;;
53871;SDS011;39787;53.174;5.798;2022-08-19T05:30:21;23.70;;;15.45;;
53871;SDS011;39787;53.174;5.798;2022-08-19T05:31:21;21.07;;;15.73;;
53871;SDS011;39787;53.174;5.798;2022-08-19T05:32:22;18.83;;;14.83;;
53871;SDS011;39787;53.174;5.798;2022-08-19T05:33:22;20.57;;;15.40;;
53871;SDS011;39787;53.174;5.798;2022-08-19T05:34:23;19.53;;;15.00;;
53871;SDS011;39787;53.174;5.798;2022-08-19T05:35:24;21.40;;;14.93;;
53871;SDS011;39787;53.174;5.798;2022-08-19T05:36:25;18.60;;;14.40;;
53871;SDS011;39787;53.174;5.798;2022-08-19T05:37:27;19.90;;;14.65;;
53871;SDS011;39787;53.174;5.798;2022-08-19T05:38:27;21.57;;;15.07;;
53871;SDS011;39787;53.174;5.798;2022-08-19T05:39:29;18.97;;;15.50;;
53871;SDS011;39787;53.174;5.798;2022-08-19T05:40:31;21.95;;;15.80;;
53871;SDS011;39787;53.174;5.798;2022-08-19T05:41:40;16.95;;;15.10;;
53871;SDS011;39787;53.174;5.798;2022-08-19T05:42:49;17.23;;;15.23;;
53871;SDS011;39787;53.174;5.798;2022-08-19T05:43:49;19.80;;;15.63;;
53871;SDS011;39787;53.174;5.798;2022-08-19T05:44:50;22.53;;;14.67;;
53871;SDS011;39787;53.174;5.798;2022-08-19T05:45:51;18.73;;;15.20;;
53871;SDS011;39787;53.174;5.798;2022-08-19T05:46:51;16.77;;;14.57;;
53871;SDS011;39787;53.174;5.798;2022-08-19T05:47:52;17.85;;;14.88;;
53871;SDS011;39787;53.174;5.798;2022-08-19T05:48:53;17.27;;;15.37;;
53871;SDS011;39787;53.174;5.798;2022-08-19T05:49:54;20.05;;;14.60;;
53871;SDS011;39787;53.174;5.798;2022-08-19T05:50:54;18.47;;;14.73;;
53871;SDS011;39787;53.174;5.798;2022-08-19T05:51:55;18.63;;;13.87;;
53871;SDS011;39787;53.174;5.798;2022-08-19T05:52:56;16.20;;;13.50;;
53871;SDS011;39787;53.174;5.798;2022-08-19T05:53:56;15.77;;;13.97;;
53871;SDS011;39787;53.174;5.798;2022-08-19T05:54:56;23.43;;;15.03;;
53871;SDS011;39787;53.174;5.798;2022-08-19T05:55:57;18.23;;;14.60;;
53871;SDS011;39787;53.174;5.798;2022-08-19T05:56:58;18.70;;;14.73;;
53871;SDS011;39787;53.174;5.798;2022-08-19T05:57:58;23.30;;;14.93;;
53871;SDS011;39787;53.174;5.798;2022-08-19T05:58:58;18.57;;;14.90;;
53871;SDS011;39787;53.174;5.798;2022-08-19T05:59:59;19.73;;;14.53;;
53871;SDS011;39787;53.174;5.798;2022-08-19T06:01:00;20.03;;;13.67;;
53871;SDS011;39787;53.174;5.798;2022-08-19T06:02:00;18.07;;;14.63;;
53871;SDS011;39787;53.174;5.798;2022-08-19T06:03:02;19.13;;;13.90;;
53871;SDS011;39787;53.174;5.798;2022-08-19T06:04:04;17.00;;;14.07;;
53871;SDS011;39787;53.174;5.798;2022-08-19T06:05:05;15.90;;;14.23;;
53871;SDS011;39787;53.174;5.798;2022-08-19T06:06:07;21.33;;;15.15;;
53871;SDS011;39787;53.174;5.798;2022-08-19T06:07:08;19.10;;;15.07;;
53871;SDS011;39787;53.174;5.798;2022-08-19T06:08:09;17.83;;;14.77;;
53871;SDS011;39787;53.174;5.798;2022-08-19T06:09:09;20.87;;;15.20;;
53871;SDS011;39787;53.174;5.798;2022-08-19T06:10:10;21.93;;;16.07;;
53871;SDS011;39787;53.174;5.798;2022-08-19T06:11:22;16.55;;;14.75;;